Time;durP1;ratioP1;P1;durP2;ratioP2;P2;SDS_P1;SDS_P2;PMS_P1;PMS_P2;Temp;Humidity;BMP_temperature;BMP_pressure;BME280_temperature;BME280_humidity;BME280_pressure;Samples;Min_cycle;Max_cycle;Signal;HPM_P1;HPM_P2
2023/03/23 00:02:35;;;;;;;0.93;0.80;;;14.70;99.90;;;;;;5030052;28;20025;-51
2023/03/23 00:05:03;;;;;;;0.90;0.70;;;14.70;99.90;;;;;;5030049;28;20065;-50
2023/03/23 00:07:28;;;;;;;10.77;4.78;;;14.70;99.90;;;;;;5030034;28;20565;-54
2023/03/23 00:09:55;;;;;;;23.70;14.63;;;14.60;99.90;;;;;;5029837;28;20112;-50
2023/03/23 00:12:32;;;;;;;2.08;1.23;;;14.70;99.90;;;;;;5029862;28;20033;-54
2023/03/23 00:15:00;;;;;;;4.50;1.00;;;14.70;99.90;;;;;;5029683;28;20036;-48
2023/03/23 00:17:26;;;;;;;1.38;0.90;;;14.70;99.90;;;;;;5029506;28;20029;-53
2023/03/23 00:19:51;;;;;;;1.23;1.13;;;14.70;99.90;;;;;;5029319;28;20088;-54
2023/03/23 00:22:19;;;;;;;1.98;1.10;;;14.70;99.90;;;;;;5011595;28;20034;-54
2023/03/23 00:24:45;;;;;;;1.55;1.13;;;14.60;99.90;;;;;;5029409;28;20072;-49
2023/03/23 00:27:12;;;;;;;0.98;0.80;;;14.70;99.90;;;;;;5029670;28;20110;-53
2023/03/23 00:29:40;;;;;;;1.55;0.90;;;14.70;99.90;;;;;;5010882;28;20050;-57
2023/03/23 00:32:06;;;;;;;2.80;1.02;;;14.70;99.90;;;;;;5029687;28;20017;-57
2023/03/23 00:34:32;;;;;;;0.85;0.85;;;14.70;99.90;;;;;;5029702;28;20485;-55
2023/03/23 00:36:59;;;;;;;2.50;1.35;;;14.70;99.90;;;;;;5028411;28;20025;-56
2023/03/23 00:39:27;;;;;;;1.08;0.82;;;14.70;99.90;;;;;;5029743;28;20124;-52
2023/03/23 00:41:54;;;;;;;1.27;1.02;;;14.70;99.90;;;;;;5029205;28;20029;-50
2023/03/23 00:44:23;;;;;;;0.73;0.73;;;14.70;99.90;;;;;;5029310;28;20056;-54
2023/03/23 00:46:52;;;;;;;1.85;1.30;;;14.70;99.90;;;;;;5029180;28;20561;-55
2023/03/23 00:49:24;;;;;;;2.55;1.15;;;14.70;99.90;;;;;;5029221;28;20507;-54
2023/03/23 00:51:51;;;;;;;1.17;0.93;;;14.70;99.90;;;;;;5028988;28;20049;-56
2023/03/23 00:54:17;;;;;;;1.02;0.90;;;14.70;99.90;;;;;;5028872;28;20087;-56
2023/03/23 00:56:42;;;;;;;4.53;1.10;;;14.70;99.90;;;;;;5028970;28;20428;-56
2023/03/23 00:59:08;;;;;;;1.60;1.10;;;14.80;99.90;;;;;;5011496;28;20394;-50
2023/03/23 01:01:34;;;;;;;1.52;1.27;;;14.80;99.90;;;;;;5029015;28;20021;-56
2023/03/23 01:04:00;;;;;;;1.35;0.90;;;14.70;99.90;;;;;;5030264;28;20033;-48
2023/03/23 01:06:30;;;;;;;3.33;1.02;;;14.70;99.90;;;;;;5028905;28;20026;-48
2023/03/23 01:08:57;;;;;;;1.38;1.00;;;14.70;99.90;;;;;;5028843;28;20029;-56
2023/03/23 01:11:23;;;;;;;3.50;0.95;;;14.60;99.90;;;;;;5028414;28;20056;-54
2023/03/23 01:13:48;;;;;;;1.17;0.90;;;14.60;99.90;;;;;;5028028;28;20022;-49
2023/03/23 01:16:14;;;;;;;1.83;0.95;;;14.60;99.90;;;;;;5028512;28;20036;-48
2023/03/23 01:18:40;;;;;;;0.82;0.80;;;14.60;99.90;;;;;;5027711;28;20028;-51
2023/03/23 01:21:07;;;;;;;1.88;1.10;;;14.60;99.90;;;;;;5028248;28;20021;-52
2023/03/23 01:23:34;;;;;;;0.70;0.70;;;14.50;99.90;;;;;;5027759;28;20037;-55
2023/03/23 01:26:09;;;;;;;0.90;0.75;;;14.60;99.90;;;;;;5028619;28;20036;-50
2023/03/23 01:28:35;;;;;;;0.70;0.70;;;14.60;99.90;;;;;;5028939;28;20052;-53
2023/03/23 01:31:06;;;;;;;1.13;0.80;;;14.70;99.90;;;;;;5030571;28;20049;-52
2023/03/23 01:33:32;;;;;;;0.85;0.80;;;14.70;99.90;;;;;;5013130;28;20497;-56
2023/03/23 01:36:04;;;;;;;1.08;0.98;;;14.80;99.90;;;;;;5031480;28;20030;-54
2023/03/23 01:38:30;;;;;;;2.63;1.27;;;14.80;99.90;;;;;;5031405;28;20026;-51
2023/03/23 01:40:56;;;;;;;0.65;0.60;;;14.90;99.90;;;;;;5031356;28;20026;-52
2023/03/23 01:43:21;;;;;;;2.42;0.70;;;14.80;99.90;;;;;;5031470;28;20029;-55
2023/03/23 01:45:47;;;;;;;4.35;0.90;;;14.90;99.90;;;;;;5031394;28;20029;-51
2023/03/23 01:48:22;;;;;;;0.90;0.88;;;14.90;99.90;;;;;;5034326;28;20504;-54
2023/03/23 01:51:05;;;;;;;0.90;0.90;;;14.90;99.90;;;;;;5035329;28;20030;-52
2023/03/23 01:53:42;;;;;;;1.50;1.40;;;14.90;99.90;;;;;;5017838;28;20025;-50
2023/03/23 01:56:11;;;;;;;0.90;0.90;;;14.90;99.90;;;;;;5035563;28;20167;-51
2023/03/23 01:58:38;;;;;;;1.17;0.95;;;14.90;99.90;;;;;;5035238;28;20028;-51
2023/03/23 02:01:07;;;;;;;1.80;1.15;;;14.90;99.90;;;;;;5017403;28;20075;-55
2023/03/23 02:03:36;;;;;;;1.10;1.00;;;14.90;99.90;;;;;;5035151;28;20103;-57
2023/03/23 02:06:02;;;;;;;2.45;1.15;;;15.00;99.90;;;;;;5035161;28;20033;-52
2023/03/23 02:08:28;;;;;;;1.70;0.98;;;14.90;99.90;;;;;;5035159;28;20022;-53
2023/03/23 02:10:54;;;;;;;1.58;1.10;;;14.90;99.90;;;;;;5034835;28;20033;-51
2023/03/23 02:13:21;;;;;;;1.42;0.90;;;14.90;99.90;;;;;;5017138;28;20512;-53
2023/03/23 02:16:05;;;;;;;1.48;0.85;;;14.90;99.90;;;;;;5035069;28;20069;-49
2023/03/23 02:18:48;;;;;;;1.83;1.30;;;14.90;99.90;;;;;;5034952;28;20022;-54
2023/03/23 02:21:16;;;;;;;1.30;1.02;;;14.80;99.90;;;;;;5034661;28;20504;-55
2023/03/23 02:24:10;;;;;;;1.20;1.13;;;14.80;99.90;;;;;;5034727;28;20397;-52
2023/03/23 02:26:41;;;;;;;1.80;1.10;;;14.80;99.90;;;;;;5034663;28;20052;-54
2023/03/23 02:29:13;;;;;;;3.22;1.25;;;14.70;99.90;;;;;;5016934;28;20032;-52
2023/03/23 02:32:08;;;;;;;3.72;1.27;;;14.70;99.90;;;;;;5034330;28;20037;-52
2023/03/23 02:34:44;;;;;;;0.93;0.93;;;14.70;99.90;;;;;;5032235;28;20136;-53
2023/03/23 02:37:14;;;;;;;0.98;0.95;;;14.70;99.90;;;;;;5034893;28;20028;-54
2023/03/23 02:40:20;;;;;;;1.52;1.13;;;14.70;99.90;;;;;;5034777;28;20596;-52
2023/03/23 02:42:49;;;;;;;2.78;0.98;;;14.70;99.90;;;;;;5030399;28;20041;-55
2023/03/23 02:45:17;;;;;;;2.85;1.42;;;14.70;99.90;;;;;;5034882;28;20489;-51
2023/03/23 02:47:43;;;;;;;1.55;1.20;;;14.70;99.90;;;;;;5035103;28;20052;-55
2023/03/23 02:50:12;;;;;;;1.98;0.90;;;14.70;99.90;;;;;;5035267;28;20108;-54
2023/03/23 02:52:40;;;;;;;1.40;1.05;;;14.80;99.90;;;;;;5034962;28;20453;-51
2023/03/23 02:55:08;;;;;;;4.43;1.20;;;14.80;99.90;;;;;;5034902;28;20481;-50
2023/03/23 02:57:34;;;;;;;3.78;1.40;;;14.80;99.90;;;;;;5016374;28;20037;-52
2023/03/23 03:00:00;;;;;;;2.92;1.00;;;14.80;99.90;;;;;;5033121;28;20025;-51
2023/03/23 03:02:37;;;;;;;1.23;0.98;;;14.70;99.90;;;;;;5034238;28;20029;-57
2023/03/23 03:05:18;;;;;;;1.58;1.30;;;14.70;99.90;;;;;;5033973;28;20030;-49
2023/03/23 03:08:07;;;;;;;2.70;1.05;;;14.60;99.90;;;;;;5034118;28;20192;-54
2023/03/23 03:10:41;;;;;;;2.05;1.40;;;14.50;99.90;;;;;;5033922;28;20029;-56
2023/03/23 03:13:33;;;;;;;1.10;1.00;;;14.40;99.90;;;;;;5033896;28;20103;-51
2023/03/23 03:16:08;;;;;;;3.10;1.52;;;14.40;99.90;;;;;;5033831;28;20013;-51
2023/03/23 03:19:01;;;;;;;1.53;0.97;;;14.30;99.90;;;;;;5033893;28;20080;-51
2023/03/23 03:21:30;;;;;;;2.35;1.65;;;14.20;99.90;;;;;;5033802;28;20047;-51
2023/03/23 03:24:00;;;;;;;1.50;1.38;;;14.30;99.90;;;;;;5033499;28;20033;-51
2023/03/23 03:26:27;;;;;;;1.80;1.35;;;14.20;99.90;;;;;;5035201;28;20027;-55
2023/03/23 03:28:53;;;;;;;3.55;1.35;;;14.10;99.90;;;;;;5035593;28;20037;-52
2023/03/23 03:31:27;;;;;;;1.35;1.25;;;14.10;99.90;;;;;;5033165;28;20022;-51
2023/03/23 03:33:53;;;;;;;3.22;1.52;;;14.00;99.90;;;;;;5015652;28;20087;-53
2023/03/23 03:36:23;;;;;;;3.38;1.42;;;14.00;99.90;;;;;;5033391;28;20025;-52
2023/03/23 03:38:50;;;;;;;1.73;1.50;;;14.00;99.90;;;;;;5033837;28;20489;-49
2023/03/23 03:41:17;;;;;;;2.60;1.50;;;13.90;99.90;;;;;;5033283;28;20029;-47
2023/03/23 03:43:43;;;;;;;1.40;1.30;;;13.90;99.90;;;;;;5033344;28;20026;-50
2023/03/23 03:46:08;;;;;;;2.03;1.75;;;13.80;99.90;;;;;;5033167;28;20028;-51
2023/03/23 03:48:35;;;;;;;1.33;1.20;;;13.80;99.90;;;;;;5033241;28;20053;-51
2023/03/23 03:51:01;;;;;;;2.88;1.80;;;13.80;99.90;;;;;;5033025;28;20381;-52
2023/03/23 03:53:27;;;;;;;1.65;1.50;;;13.70;99.90;;;;;;5033090;28;20432;-52
2023/03/23 03:55:56;;;;;;;2.28;1.52;;;13.70;99.90;;;;;;5015286;28;20026;-52
2023/03/23 03:58:22;;;;;;;1.95;1.77;;;13.70;99.90;;;;;;5033013;28;20080;-51
2023/03/23 04:00:48;;;;;;;2.70;1.63;;;13.60;99.90;;;;;;5033279;28;20025;-53
2023/03/23 04:03:14;;;;;;;4.60;1.52;;;13.60;99.90;;;;;;5032811;28;20031;-51
2023/03/23 04:05:41;;;;;;;1.60;1.50;;;13.60;99.90;;;;;;5032866;28;20029;-50
2023/03/23 04:08:07;;;;;;;1.50;1.40;;;13.50;99.90;;;;;;5033070;28;20500;-50
2023/03/23 04:10:33;;;;;;;2.28;1.30;;;13.50;99.90;;;;;;5032459;28;20030;-52
2023/03/23 04:12:58;;;;;;;2.25;1.25;;;13.50;99.90;;;;;;5032965;28;20045;-53
2023/03/23 04:15:25;;;;;;;1.60;1.50;;;13.50;99.90;;;;;;5032854;28;20492;-53
2023/03/23 04:17:50;;;;;;;3.30;1.45;;;13.50;99.90;;;;;;5032633;28;20078;-52
2023/03/23 04:20:17;;;;;;;1.38;1.27;;;13.40;99.90;;;;;;5032725;28;20432;-53
2023/03/23 04:22:49;;;;;;;1.48;1.38;;;13.40;99.90;;;;;;5032812;28;20393;-51
2023/03/23 04:25:20;;;;;;;1.52;1.42;;;13.50;99.90;;;;;;5032441;28;20524;-51
2023/03/23 04:27:52;;;;;;;3.38;1.27;;;13.50;99.90;;;;;;5032661;28;20294;-52
2023/03/23 04:30:22;;;;;;;1.30;1.20;;;13.40;99.90;;;;;;5032160;28;20025;-51
2023/03/23 04:32:54;;;;;;;1.40;1.30;;;13.40;99.90;;;;;;5032580;28;20095;-53
2023/03/23 04:35:22;;;;;;;1.55;1.45;;;13.50;99.90;;;;;;5032451;28;20022;-50
2023/03/23 04:37:48;;;;;;;1.95;1.25;;;13.40;99.90;;;;;;5032688;28;20091;-51
2023/03/23 04:40:14;;;;;;;3.03;1.30;;;13.40;99.90;;;;;;5032349;28;20022;-50
2023/03/23 04:42:45;;;;;;;5.90;1.60;;;13.40;99.90;;;;;;5032638;28;20037;-52
2023/03/23 04:45:12;;;;;;;2.05;1.13;;;13.40;99.90;;;;;;5032593;28;20677;-54
2023/03/23 04:47:41;;;;;;;2.83;1.40;;;13.40;99.90;;;;;;5032456;28;20532;-51
2023/03/23 04:50:08;;;;;;;3.08;1.38;;;13.50;99.90;;;;;;5032026;28;20031;-54
2023/03/23 04:52:33;;;;;;;2.45;1.50;;;13.50;99.90;;;;;;5032096;28;20049;-50
2023/03/23 04:54:59;;;;;;;1.50;1.40;;;13.50;99.90;;;;;;5031981;28;20044;-55
2023/03/23 04:57:28;;;;;;;3.90;1.35;;;13.50;99.90;;;;;;5032066;28;20408;-51
2023/03/23 04:59:53;;;;;;;1.27;1.17;;;13.50;99.90;;;;;;5031847;28;20026;-53
2023/03/23 05:02:19;;;;;;;2.03;1.70;;;13.60;99.90;;;;;;5031999;28;20116;-55
2023/03/23 05:04:45;;;;;;;3.10;1.42;;;13.60;99.90;;;;;;5031941;28;20041;-50
2023/03/23 05:07:11;;;;;;;2.38;1.50;;;13.60;99.90;;;;;;5031811;28;20090;-50
2023/03/23 05:09:37;;;;;;;3.50;1.67;;;13.60;99.90;;;;;;5031709;28;20026;-54
2023/03/23 05:12:07;;;;;;;1.95;1.45;;;13.60;99.90;;;;;;5031893;28;20079;-52
2023/03/23 05:14:32;;;;;;;3.55;1.50;;;13.60;99.90;;;;;;5031769;28;20348;-55
2023/03/23 05:16:58;;;;;;;3.05;1.40;;;13.60;99.90;;;;;;5031693;28;20025;-55
2023/03/23 05:19:24;;;;;;;2.20;1.40;;;13.60;99.90;;;;;;5031854;28;20028;-50
2023/03/23 05:21:49;;;;;;;1.65;1.52;;;13.70;99.90;;;;;;5030987;28;20125;-52
2023/03/23 05:24:15;;;;;;;1.40;0.98;;;13.70;99.90;;;;;;5031688;28;20048;-54
2023/03/23 05:26:40;;;;;;;1.48;1.13;;;13.80;99.90;;;;;;5031407;28;20036;-54
2023/03/23 05:29:06;;;;;;;2.15;1.10;;;13.80;99.90;;;;;;5031533;28;20485;-53
2023/03/23 05:31:31;;;;;;;1.45;1.35;;;13.80;99.90;;;;;;5031218;28;20027;-57
2023/03/23 05:33:58;;;;;;;2.92;1.33;;;13.80;99.90;;;;;;5031645;28;20535;-52
2023/03/23 05:36:24;;;;;;;4.32;1.40;;;13.80;99.90;;;;;;5031499;28;20067;-50
2023/03/23 05:38:52;;;;;;;2.42;1.42;;;13.90;99.90;;;;;;5031439;28;20030;-51
2023/03/23 05:41:18;;;;;;;1.90;1.80;;;13.90;99.90;;;;;;5031475;28;20454;-55
2023/03/23 05:43:43;;;;;;;1.90;1.65;;;13.90;99.90;;;;;;5031521;28;20052;-53
2023/03/23 05:46:09;;;;;;;2.40;1.50;;;13.90;99.90;;;;;;5031474;28;20041;-55
2023/03/23 05:48:36;;;;;;;1.27;1.20;;;13.90;99.90;;;;;;5031324;28;20112;-51
2023/03/23 05:51:01;;;;;;;1.38;1.27;;;13.80;99.90;;;;;;5031168;28;20022;-54
2023/03/23 05:53:29;;;;;;;1.85;1.67;;;13.90;99.90;;;;;;5031429;28;20100;-51
2023/03/23 05:55:58;;;;;;;2.08;1.60;;;13.80;99.90;;;;;;5031357;28;20479;-55
2023/03/23 05:58:24;;;;;;;1.17;1.13;;;13.80;99.90;;;;;;5031710;28;20045;-54
2023/03/23 06:00:49;;;;;;;1.65;1.55;;;13.80;99.90;;;;;;5031099;28;20033;-55
2023/03/23 06:03:15;;;;;;;2.90;1.60;;;13.70;99.90;;;;;;5031081;28;20033;-52
2023/03/23 06:05:44;;;;;;;2.75;1.65;;;13.70;99.90;;;;;;5031276;28;20057;-56
2023/03/23 06:08:11;;;;;;;2.38;1.55;;;13.60;99.90;;;;;;5031017;28;20551;-55
2023/03/23 06:10:36;;;;;;;3.88;1.60;;;13.50;99.90;;;;;;5031095;28;20025;-55
2023/03/23 06:13:03;;;;;;;3.60;1.60;;;13.50;99.90;;;;;;5031360;28;20025;-54
2023/03/23 06:15:31;;;;;;;2.85;1.55;;;13.50;99.90;;;;;;5030993;28;20527;-50
2023/03/23 06:17:59;;;;;;;1.63;1.52;;;13.40;99.90;;;;;;5031274;28;20067;-54
2023/03/23 06:20:24;;;;;;;1.58;1.48;;;13.40;99.90;;;;;;5031019;28;20030;-52
2023/03/23 06:22:51;;;;;;;4.10;1.67;;;13.40;99.90;;;;;;5030872;28;20079;-52
2023/03/23 06:25:17;;;;;;;1.48;1.27;;;13.40;99.90;;;;;;5031081;28;20496;-53
2023/03/23 06:27:43;;;;;;;1.40;1.30;;;13.30;99.90;;;;;;5013118;28;20044;-54
2023/03/23 06:30:10;;;;;;;4.15;1.58;;;13.30;99.90;;;;;;5030494;28;20101;-51
2023/03/23 06:32:37;;;;;;;5.07;1.40;;;13.30;99.90;;;;;;5030967;28;20485;-48
2023/03/23 06:35:03;;;;;;;3.95;2.10;;;13.20;99.90;;;;;;5033257;28;20287;-54
2023/03/23 06:37:29;;;;;;;2.47;1.50;;;13.20;99.90;;;;;;5034481;28;20109;-51
2023/03/23 06:39:54;;;;;;;2.90;1.35;;;13.20;99.90;;;;;;5016648;28;20442;-51
2023/03/23 06:42:23;;;;;;;3.65;1.67;;;13.20;99.90;;;;;;5034353;28;20029;-50
2023/03/23 06:44:49;;;;;;;1.60;1.30;;;13.20;99.90;;;;;;5034445;28;20082;-55
2023/03/23 06:47:15;;;;;;;3.72;1.52;;;13.10;99.90;;;;;;5034387;28;20075;-55
2023/03/23 06:49:41;;;;;;;5.15;3.08;;;13.10;99.90;;;;;;5034218;28;20558;-52
2023/03/23 06:52:06;;;;;;;1.40;1.27;;;13.10;99.90;;;;;;5034374;28;20101;-50
2023/03/23 06:54:32;;;;;;;1.30;1.20;;;13.10;99.90;;;;;;5034063;28;20037;-53
2023/03/23 06:56:57;;;;;;;1.58;1.40;;;13.10;99.90;;;;;;5034168;28;20079;-52
2023/03/23 06:59:23;;;;;;;1.70;1.60;;;13.00;99.90;;;;;;5034233;28;20565;-54
2023/03/23 07:01:48;;;;;;;4.95;1.42;;;13.10;99.90;;;;;;5034098;28;20029;-51
2023/03/23 07:04:16;;;;;;;2.08;1.50;;;13.00;99.90;;;;;;5034261;28;20040;-54
2023/03/23 07:06:41;;;;;;;1.75;1.60;;;13.10;99.90;;;;;;5034026;28;20036;-51
2023/03/23 07:09:07;;;;;;;1.63;1.42;;;13.10;99.90;;;;;;5033941;28;20025;-51
2023/03/23 07:11:32;;;;;;;2.47;1.50;;;13.10;99.90;;;;;;5033843;28;20032;-53
2023/03/23 07:13:58;;;;;;;3.72;1.73;;;13.10;99.90;;;;;;5034147;28;20030;-55
2023/03/23 07:16:24;;;;;;;4.50;1.63;;;13.10;99.90;;;;;;5034006;28;20021;-48
2023/03/23 07:18:49;;;;;;;1.88;1.60;;;13.10;99.90;;;;;;5033993;28;20477;-50
2023/03/23 07:21:15;;;;;;;2.47;1.40;;;13.10;99.90;;;;;;5033859;28;20469;-52
2023/03/23 07:23:41;;;;;;;4.93;1.50;;;13.10;99.90;;;;;;5033406;28;20033;-51
2023/03/23 07:26:07;;;;;;;1.63;1.33;;;13.20;99.90;;;;;;5015886;28;20025;-56
2023/03/23 07:28:33;;;;;;;1.90;1.52;;;13.10;99.90;;;;;;5033787;28;20497;-54
2023/03/23 07:30:59;;;;;;;2.05;1.58;;;13.20;99.90;;;;;;5033937;28;20420;-55
2023/03/23 07:33:24;;;;;;;2.35;1.63;;;13.20;99.90;;;;;;5033597;28;20137;-52
2023/03/23 07:35:50;;;;;;;1.65;1.50;;;13.20;99.90;;;;;;5033258;28;20485;-51
2023/03/23 07:38:15;;;;;;;3.95;1.88;;;13.20;99.90;;;;;;5015740;28;20028;-54
2023/03/23 07:40:41;;;;;;;1.65;1.55;;;13.20;99.90;;;;;;5033518;28;20477;-50
2023/03/23 07:43:07;;;;;;;2.92;1.77;;;13.10;99.90;;;;;;5033684;28;20040;-51
2023/03/23 07:45:33;;;;;;;3.65;1.75;;;13.10;99.90;;;;;;5033002;28;20025;-50
2023/03/23 07:47:59;;;;;;;3.17;1.75;;;13.20;99.90;;;;;;5033986;28;20032;-52
2023/03/23 07:50:26;;;;;;;1.92;1.30;;;13.10;99.90;;;;;;5033036;28;20030;-53
2023/03/23 07:52:54;;;;;;;1.60;1.50;;;13.10;99.90;;;;;;5033284;28;20040;-51
2023/03/23 07:55:19;;;;;;;3.25;1.83;;;13.10;99.90;;;;;;5033159;28;20078;-55
2023/03/23 07:57:46;;;;;;;1.50;1.40;;;13.00;99.90;;;;;;5033198;28;20432;-54
2023/03/23 08:00:18;;;;;;;3.53;2.03;;;13.10;99.90;;;;;;5033000;28;20055;-54
2023/03/23 08:02:44;;;;;;;3.28;1.60;;;13.10;99.90;;;;;;5029182;28;20021;-55
2023/03/23 08:05:10;;;;;;;2.38;1.65;;;13.10;99.90;;;;;;5031907;28;20412;-54
2023/03/23 08:07:35;;;;;;;1.77;1.45;;;13.20;99.90;;;;;;5029311;28;20022;-52
2023/03/23 08:10:02;;;;;;;2.33;1.83;;;13.20;99.90;;;;;;5013022;28;20029;-53
2023/03/23 08:12:28;;;;;;;2.97;1.55;;;13.30;99.90;;;;;;5013252;28;20044;-52
2023/03/23 08:14:53;;;;;;;1.40;1.30;;;13.30;99.90;;;;;;5026472;28;20025;-50
2023/03/23 08:17:19;;;;;;;4.38;1.80;;;13.30;99.90;;;;;;5031302;28;20100;-55
2023/03/23 08:19:45;;;;;;;2.83;1.42;;;13.30;99.90;;;;;;5021740;28;20109;-51
2023/03/23 08:22:11;;;;;;;1.52;1.45;;;13.20;99.90;;;;;;5011445;28;20101;-50
2023/03/23 08:24:37;;;;;;;1.15;1.15;;;13.30;99.90;;;;;;5027435;28;20047;-52
2023/03/23 08:27:03;;;;;;;1.70;1.33;;;13.30;99.90;;;;;;5032161;28;20033;-51
2023/03/23 08:29:28;;;;;;;1.55;1.45;;;13.30;99.90;;;;;;5032058;28;20465;-49
2023/03/23 08:31:54;;;;;;;4.22;1.65;;;13.30;99.90;;;;;;5032409;28;20056;-52
2023/03/23 08:34:20;;;;;;;2.30;1.88;;;13.30;99.90;;;;;;5015920;28;20025;-51
2023/03/23 08:36:46;;;;;;;1.58;1.48;;;13.20;99.90;;;;;;5027625;28;20033;-49
2023/03/23 08:39:12;;;;;;;1.63;1.52;;;13.30;99.90;;;;;;5030500;28;20148;-51
2023/03/23 08:41:38;;;;;;;1.90;1.80;;;13.30;99.90;;;;;;5031676;28;20025;-52
2023/03/23 08:44:05;;;;;;;1.65;1.40;;;13.30;99.90;;;;;;5032012;28;20056;-58
2023/03/23 08:46:30;;;;;;;1.80;1.67;;;13.30;99.90;;;;;;5031973;28;20021;-53
2023/03/23 08:48:56;;;;;;;1.65;1.48;;;13.30;99.90;;;;;;5014400;28;20029;-52
2023/03/23 08:51:21;;;;;;;3.13;1.42;;;13.30;99.90;;;;;;5031976;28;20018;-53
2023/03/23 08:53:47;;;;;;;1.20;1.20;;;13.30;99.90;;;;;;5032076;28;20473;-50
2023/03/23 08:56:13;;;;;;;2.25;1.63;;;13.40;99.90;;;;;;5013798;28;20041;-54
2023/03/23 08:58:39;;;;;;;2.15;1.80;;;13.40;99.90;;;;;;5031748;28;20021;-53
2023/03/23 09:01:06;;;;;;;1.92;1.60;;;13.40;99.90;;;;;;5031909;28;20022;-53
2023/03/23 09:03:32;;;;;;;2.20;2.00;;;13.40;99.90;;;;;;5014166;28;20163;-54
2023/03/23 09:06:04;;;;;;;2.47;1.73;;;13.40;99.90;;;;;;5031814;28;20033;-50
2023/03/23 09:08:30;;;;;;;3.13;1.70;;;13.50;99.90;;;;;;5031989;28;20285;-53
2023/03/23 09:10:59;;;;;;;2.17;1.70;;;13.50;99.90;;;;;;5031685;28;20502;-52
2023/03/23 09:13:24;;;;;;;2.33;1.63;;;13.60;99.90;;;;;;5031520;28;20041;-52
2023/03/23 09:15:51;;;;;;;1.27;1.08;;;13.70;99.90;;;;;;5031706;28;20385;-51
2023/03/23 09:18:17;;;;;;;1.67;1.33;;;13.80;99.90;;;;;;5031715;28;20485;-50
2023/03/23 09:20:43;;;;;;;1.40;1.30;;;13.90;99.90;;;;;;5031502;28;20025;-54
2023/03/23 09:23:09;;;;;;;2.40;1.25;;;13.90;99.90;;;;;;5031659;28;20060;-54
2023/03/23 09:25:35;;;;;;;1.55;1.45;;;14.10;99.90;;;;;;5031291;28;20057;-53
2023/03/23 09:28:00;;;;;;;3.28;1.27;;;14.10;99.90;;;;;;5031555;28;20090;-52
2023/03/23 09:30:30;;;;;;;2.05;1.60;;;14.10;99.90;;;;;;5031694;28;20477;-52
2023/03/23 09:32:57;;;;;;;0.90;0.90;;;14.20;99.90;;;;;;5014042;28;20109;-51
2023/03/23 09:35:23;;;;;;;1.50;1.40;;;14.20;99.90;;;;;;5031804;28;20077;-50
2023/03/23 09:37:51;;;;;;;1.90;1.40;;;14.30;99.90;;;;;;5032570;28;20222;-51
2023/03/23 09:40:22;;;;;;;1.73;1.20;;;14.40;99.90;;;;;;5032340;28;20493;-51
2023/03/23 09:43:35;;;;;;;1.63;1.35;;;14.40;99.90;;;;;;5031377;28;20439;-50
2023/03/23 09:46:11;;;;;;;1.50;1.40;;;14.50;99.90;;;;;;5031676;28;20484;-55
2023/03/23 09:48:48;;;;;;;2.80;1.45;;;14.60;99.90;;;;;;5031036;28;20022;-55
2023/03/23 09:51:34;;;;;;;1.67;1.30;;;14.70;99.90;;;;;;5030853;28;20061;-53
2023/03/23 09:54:08;;;;;;;1.58;1.45;;;15.10;99.90;;;;;;5031235;28;20025;-57
2023/03/23 09:56:35;;;;;;;1.48;1.38;;;15.50;99.90;;;;;;5031220;28;20308;-52
2023/03/23 09:59:12;;;;;;;1.40;1.30;;;15.60;99.90;;;;;;5031343;28;20018;-55
2023/03/23 10:01:45;;;;;;;2.58;1.45;;;15.60;99.90;;;;;;5031281;28;20025;-55
2023/03/23 10:04:30;;;;;;;1.38;1.25;;;15.40;99.90;;;;;;5027847;28;20053;-56
2023/03/23 10:07:13;;;;;;;2.90;1.43;;;15.20;99.90;;;;;;4992131;28;20032;-57
2023/03/23 10:09:40;;;;;;;1.83;1.60;;;15.10;99.90;;;;;;5022255;28;20408;-54
2023/03/23 10:12:38;;;;;;;2.63;2.00;;;14.80;99.90;;;;;;5022048;28;20022;-60
2023/03/23 10:15:30;;;;;;;1.60;1.50;;;14.80;99.90;;;;;;5015284;28;20458;-53
2023/03/23 10:18:02;;;;;;;1.88;1.42;;;14.80;99.90;;;;;;5023534;28;20033;-57
2023/03/23 10:20:32;;;;;;;1.10;1.10;;;14.70;99.90;;;;;;5029136;28;20038;-51
2023/03/23 10:23:18;;;;;;;1.90;1.38;;;14.70;99.90;;;;;;5034887;28;20037;-48
2023/03/23 10:25:56;;;;;;;1.50;1.40;;;14.70;99.90;;;;;;5014953;28;20081;-48
2023/03/23 10:28:38;;;;;;;1.38;1.15;;;14.70;99.90;;;;;;5015070;28;20022;-51
2023/03/23 10:31:08;;;;;;;2.05;1.20;;;14.60;99.90;;;;;;5014944;28;20048;-53
2023/03/23 10:33:43;;;;;;;2.92;1.65;;;14.60;99.90;;;;;;5014934;28;20026;-54
2023/03/23 10:36:14;;;;;;;1.55;1.38;;;14.40;99.90;;;;;;5022210;28;20377;-53
2023/03/23 10:38:45;;;;;;;2.17;1.40;;;14.40;99.90;;;;;;5034589;28;20450;-55
2023/03/23 10:41:13;;;;;;;3.25;1.40;;;14.40;99.90;;;;;;5034492;28;20026;-54
2023/03/23 10:43:41;;;;;;;1.30;1.20;;;14.30;99.90;;;;;;5034381;28;20226;-52
2023/03/23 10:46:22;;;;;;;5.32;1.30;;;14.40;99.90;;;;;;5034499;28;20030;-55
2023/03/23 10:48:49;;;;;;;3.45;1.40;;;14.40;99.90;;;;;;5034481;28;20028;-56
2023/03/23 10:51:20;;;;;;;1.77;1.40;;;14.50;99.90;;;;;;5034214;28;20083;-55
2023/03/23 10:53:50;;;;;;;1.92;1.23;;;14.60;99.90;;;;;;5034251;28;20025;-53
2023/03/23 10:56:44;;;;;;;2.45;1.05;;;14.70;99.90;;;;;;5034333;28;20432;-50
2023/03/23 10:59:20;;;;;;;1.48;1.38;;;14.80;99.90;;;;;;5015701;28;20058;-48
2023/03/23 11:01:50;;;;;;;1.67;1.58;;;14.90;99.90;;;;;;5019416;28;20366;-54
2023/03/23 11:04:18;;;;;;;0.82;0.82;;;14.90;99.90;;;;;;5033920;28;20028;-50
2023/03/23 11:06:47;;;;;;;2.35;1.40;;;14.80;99.90;;;;;;5033884;28;20121;-49
2023/03/23 11:09:17;;;;;;;2.30;1.17;;;14.80;99.90;;;;;;5034061;28;20018;-55
2023/03/23 11:11:49;;;;;;;1.85;1.00;;;14.90;99.90;;;;;;5033830;28;20024;-55
2023/03/23 11:14:17;;;;;;;1.00;1.00;;;14.80;99.90;;;;;;4996663;28;20018;-50
2023/03/23 11:16:49;;;;;;;2.38;1.08;;;14.70;99.90;;;;;;5018275;28;20071;-52
2023/03/23 11:19:21;;;;;;;3.75;3.40;;;14.70;99.90;;;;;;5015722;28;20022;-47
2023/03/23 11:22:05;;;;;;;1.35;1.25;;;14.60;99.90;;;;;;5032413;28;20072;-50
2023/03/23 11:24:43;;;;;;;10.10;2.88;;;14.60;99.90;;;;;;5033773;28;20053;-47
2023/03/23 11:27:10;;;;;;;1.25;1.20;;;14.70;99.90;;;;;;5033547;28;20118;-53
2023/03/23 11:29:45;;;;;;;1.70;1.23;;;14.80;99.90;;;;;;5033667;28;20026;-50
2023/03/23 11:32:13;;;;;;;2.38;1.40;;;14.90;99.90;;;;;;5015775;28;20022;-51
2023/03/23 11:34:48;;;;;;;1.70;1.20;;;14.90;99.90;;;;;;5033314;28;20468;-53
2023/03/23 11:37:40;;;;;;;6.30;0.90;;;14.90;99.90;;;;;;5015093;28;20282;-53
2023/03/23 11:40:09;;;;;;;1.27;1.17;;;14.80;99.90;;;;;;5020074;28;20037;-51
2023/03/23 11:42:44;;;;;;;2.33;1.00;;;14.80;99.90;;;;;;5031685;28;20021;-55
2023/03/23 11:45:25;;;;;;;1.17;1.00;;;14.70;99.90;;;;;;5023447;28;20440;-52
2023/03/23 11:48:16;;;;;;;2.17;1.52;;;14.70;99.90;;;;;;5033276;28;20145;-55
2023/03/23 11:50:51;;;;;;;1.33;1.15;;;14.60;99.90;;;;;;5021700;28;20489;-52
2023/03/23 11:53:41;;;;;;;1.65;1.20;;;14.50;99.90;;;;;;5015430;28;20500;-50
2023/03/23 11:56:22;;;;;;;1.00;0.85;;;14.50;99.90;;;;;;5033188;28;20115;-50
2023/03/23 11:58:48;;;;;;;0.82;0.82;;;14.50;99.90;;;;;;5032507;28;20029;-48
2023/03/23 12:01:37;;;;;;;1.73;0.80;;;14.40;99.90;;;;;;5032368;28;20075;-52
2023/03/23 12:04:21;;;;;;;0.80;0.80;;;14.30;99.90;;;;;;5018402;28;20029;-51
2023/03/23 12:07:05;;;;;;;0.88;0.70;;;14.30;99.90;;;;;;5013461;28;20036;-53
2023/03/23 12:09:43;;;;;;;0.98;0.80;;;14.30;99.90;;;;;;5032730;28;20547;-46
2023/03/23 12:12:36;;;;;;;1.40;0.80;;;14.30;99.90;;;;;;5032479;28;20497;-53
2023/03/23 12:15:01;;;;;;;1.02;0.90;;;14.30;99.90;;;;;;5032040;28;20049;-49
2023/03/23 12:17:59;;;;;;;0.82;0.70;;;14.30;99.90;;;;;;5028149;28;20654;-51
2023/03/23 12:20:54;;;;;;;1.55;1.00;;;14.40;99.90;;;;;;5026857;28;20066;-49
2023/03/23 12:23:28;;;;;;;3.03;1.02;;;14.50;99.90;;;;;;5030123;28;20108;-55
2023/03/23 12:26:08;;;;;;;3.63;1.20;;;14.50;99.90;;;;;;5032064;28;20132;-55
2023/03/23 12:29:04;;;;;;;1.63;0.90;;;14.50;99.90;;;;;;5032595;28;20022;-54
2023/03/23 12:31:35;;;;;;;;;;;14.60;99.90;;;;;;5031392;28;20068;-55
2023/03/23 12:34:10;;;;;;;2.00;0.80;;;14.60;99.90;;;;;;5032211;28;19905;-54
2023/03/23 12:36:50;;;;;;;0.95;0.95;;;14.70;99.90;;;;;;5032142;28;20032;-52
2023/03/23 12:39:50;;;;;;;2.05;0.77;;;14.90;99.90;;;;;;5032392;28;20036;-55
2023/03/23 12:42:21;;;;;;;0.82;0.80;;;15.00;99.90;;;;;;5032283;28;20038;-54
2023/03/23 12:44:51;;;;;;;1.25;0.75;;;15.20;99.90;;;;;;5031930;28;20064;-55
2023/03/23 12:47:37;;;;;;;1.30;0.98;;;15.30;99.90;;;;;;5032140;28;20604;-51
2023/03/23 12:50:16;;;;;;;0.68;0.68;;;15.50;99.90;;;;;;5014529;28;20025;-53
2023/03/23 12:52:51;;;;;;;0.85;0.85;;;15.60;99.90;;;;;;5032110;28;20037;-55
2023/03/23 12:55:29;;;;;;;0.80;0.80;;;15.60;99.90;;;;;;5031472;28;20017;-53
2023/03/23 12:57:57;;;;;;;0.90;0.90;;;15.70;99.90;;;;;;5032022;28;20029;-56
2023/03/23 13:00:27;;;;;;;0.50;0.50;;;15.70;99.90;;;;;;5029177;28;20014;-57
2023/03/23 13:03:02;;;;;;;1.08;0.80;;;15.70;99.90;;;;;;5036883;28;20025;-52
2023/03/23 13:05:56;;;;;;;0.98;0.95;;;15.70;99.90;;;;;;5030958;28;20097;-51